sensor_id;sensor_type;location;lat;lon;timestamp;pressure;altitude;pressure_sealevel;temperature;humidity
58662;BME280;44432;49.786;22.760;2023-04-19T00:01:01;99312.70;;;6.97;76.40
58662;BME280;44432;49.786;22.760;2023-04-19T00:03:32;99317.30;;;6.97;76.46
58662;BME280;44432;49.786;22.760;2023-04-19T00:06:03;99311.20;;;6.97;76.35
58662;BME280;44432;49.786;22.760;2023-04-19T00:08:33;99305.98;;;6.95;76.85
58662;BME280;44432;49.786;22.760;2023-04-19T00:11:04;99300.28;;;6.94;76.58
58662;BME280;44432;49.786;22.760;2023-04-19T00:13:35;99296.52;;;6.94;76.59
58662;BME280;44432;49.786;22.760;2023-04-19T00:16:07;99294.13;;;6.93;76.86
58662;BME280;44432;49.786;22.760;2023-04-19T00:18:38;99289.33;;;6.94;77.00
58662;BME280;44432;49.786;22.760;2023-04-19T00:21:09;99288.45;;;6.95;77.31
58662;BME280;44432;49.786;22.760;2023-04-19T00:23:39;99279.69;;;6.94;77.28
58662;BME280;44432;49.786;22.760;2023-04-19T00:26:10;99281.84;;;6.96;77.02
58662;BME280;44432;49.786;22.760;2023-04-19T00:28:43;99280.27;;;6.96;77.22
58662;BME280;44432;49.786;22.760;2023-04-19T00:31:14;99279.74;;;6.96;76.93
58662;BME280;44432;49.786;22.760;2023-04-19T00:33:45;99275.67;;;6.97;77.15
58662;BME280;44432;49.786;22.760;2023-04-19T00:36:15;99265.48;;;6.94;77.27
58662;BME280;44432;49.786;22.760;2023-04-19T00:38:46;99271.67;;;6.96;77.60
58662;BME280;44432;49.786;22.760;2023-04-19T00:41:16;99269.87;;;6.98;77.38
58662;BME280;44432;49.786;22.760;2023-04-19T00:43:47;99267.69;;;6.98;77.67
58662;BME280;44432;49.786;22.760;2023-04-19T00:46:17;99267.30;;;6.99;77.38
58662;BME280;44432;49.786;22.760;2023-04-19T00:48:48;99264.95;;;6.98;77.87
58662;BME280;44432;49.786;22.760;2023-04-19T00:51:20;99265.87;;;6.98;77.73
58662;BME280;44432;49.786;22.760;2023-04-19T00:53:50;99260.98;;;6.98;77.66
58662;BME280;44432;49.786;22.760;2023-04-19T00:56:22;99259.85;;;6.97;77.75
58662;BME280;44432;49.786;22.760;2023-04-19T00:58:56;99255.40;;;6.96;78.09
58662;BME280;44432;49.786;22.760;2023-04-19T01:01:27;99254.95;;;6.95;77.88
58662;BME280;44432;49.786;22.760;2023-04-19T01:03:58;99248.90;;;6.91;77.93
58662;BME280;44432;49.786;22.760;2023-04-19T01:06:30;99246.73;;;6.88;77.68
58662;BME280;44432;49.786;22.760;2023-04-19T01:09:01;99241.15;;;6.87;78.04
58662;BME280;44432;49.786;22.760;2023-04-19T01:11:31;99242.64;;;6.85;78.39
58662;BME280;44432;49.786;22.760;2023-04-19T01:14:03;99241.50;;;6.84;78.46
58662;BME280;44432;49.786;22.760;2023-04-19T01:16:33;99238.35;;;6.84;78.56
58662;BME280;44432;49.786;22.760;2023-04-19T01:19:04;99239.52;;;6.84;78.40
58662;BME280;44432;49.786;22.760;2023-04-19T01:21:37;99233.02;;;6.85;78.80
58662;BME280;44432;49.786;22.760;2023-04-19T01:24:07;99230.08;;;6.84;78.65
58662;BME280;44432;49.786;22.760;2023-04-19T01:26:37;99227.79;;;6.82;78.74
58662;BME280;44432;49.786;22.760;2023-04-19T01:29:08;99227.14;;;6.81;78.74
58662;BME280;44432;49.786;22.760;2023-04-19T01:31:39;99226.04;;;6.80;79.03
58662;BME280;44432;49.786;22.760;2023-04-19T01:34:09;99221.91;;;6.78;79.10
58662;BME280;44432;49.786;22.760;2023-04-19T01:36:40;99222.51;;;6.78;79.28
58662;BME280;44432;49.786;22.760;2023-04-19T01:39:10;99218.75;;;6.77;79.47
58662;BME280;44432;49.786;22.760;2023-04-19T01:41:41;99217.20;;;6.76;79.46
58662;BME280;44432;49.786;22.760;2023-04-19T01:44:12;99210.56;;;6.74;79.64
58662;BME280;44432;49.786;22.760;2023-04-19T01:46:43;99210.84;;;6.73;79.38
58662;BME280;44432;49.786;22.760;2023-04-19T01:49:13;99205.63;;;6.72;79.62
58662;BME280;44432;49.786;22.760;2023-04-19T01:51:44;99205.30;;;6.71;79.47
58662;BME280;44432;49.786;22.760;2023-04-19T01:54:15;99203.32;;;6.71;79.65
58662;BME280;44432;49.786;22.760;2023-04-19T01:56:45;99200.47;;;6.68;79.49
58662;BME280;44432;49.786;22.760;2023-04-19T01:59:16;99196.18;;;6.68;79.80
58662;BME280;44432;49.786;22.760;2023-04-19T02:01:46;99193.14;;;6.65;79.69
58662;BME280;44432;49.786;22.760;2023-04-19T02:04:19;99195.10;;;6.64;79.70
58662;BME280;44432;49.786;22.760;2023-04-19T02:06:50;99195.77;;;6.61;79.87
58662;BME280;44432;49.786;22.760;2023-04-19T02:09:20;99193.91;;;6.56;79.88
58662;BME280;44432;49.786;22.760;2023-04-19T02:11:51;99197.73;;;6.55;79.96
58662;BME280;44432;49.786;22.760;2023-04-19T02:14:22;99193.39;;;6.53;80.29
58662;BME280;44432;49.786;22.760;2023-04-19T02:16:52;99192.50;;;6.52;80.10
58662;BME280;44432;49.786;22.760;2023-04-19T02:19:23;99186.77;;;6.49;80.29
58662;BME280;44432;49.786;22.760;2023-04-19T02:21:53;99186.01;;;6.48;80.25
58662;BME280;44432;49.786;22.760;2023-04-19T02:24:26;99183.34;;;6.47;79.95
58662;BME280;44432;49.786;22.760;2023-04-19T02:26:56;99179.92;;;6.45;80.21
58662;BME280;44432;49.786;22.760;2023-04-19T02:29:27;99178.41;;;6.43;80.56
58662;BME280;44432;49.786;22.760;2023-04-19T02:31:57;99175.16;;;6.41;80.39
58662;BME280;44432;49.786;22.760;2023-04-19T02:34:29;99171.50;;;6.38;80.37
58662;BME280;44432;49.786;22.760;2023-04-19T02:36:59;99170.14;;;6.35;80.48
58662;BME280;44432;49.786;22.760;2023-04-19T02:39:30;99170.52;;;6.32;80.85
58662;BME280;44432;49.786;22.760;2023-04-19T02:42:00;99169.86;;;6.30;80.74
58662;BME280;44432;49.786;22.760;2023-04-19T02:44:31;99166.63;;;6.29;80.69
58662;BME280;44432;49.786;22.760;2023-04-19T02:47:02;99163.71;;;6.28;80.87
58662;BME280;44432;49.786;22.760;2023-04-19T02:49:32;99161.29;;;6.26;81.22
58662;BME280;44432;49.786;22.760;2023-04-19T02:52:05;99159.45;;;6.25;81.14
58662;BME280;44432;49.786;22.760;2023-04-19T02:54:35;99161.56;;;6.24;81.19
58662;BME280;44432;49.786;22.760;2023-04-19T02:57:06;99159.06;;;6.23;81.72
58662;BME280;44432;49.786;22.760;2023-04-19T02:59:36;99158.09;;;6.22;81.37
58662;BME280;44432;49.786;22.760;2023-04-19T03:02:07;99154.77;;;6.21;81.59
58662;BME280;44432;49.786;22.760;2023-04-19T03:04:37;99155.52;;;6.19;81.42
58662;BME280;44432;49.786;22.760;2023-04-19T03:07:08;99156.44;;;6.18;81.51
58662;BME280;44432;49.786;22.760;2023-04-19T03:09:39;99156.40;;;6.19;81.72
58662;BME280;44432;49.786;22.760;2023-04-19T03:12:09;99154.50;;;6.18;81.79
58662;BME280;44432;49.786;22.760;2023-04-19T03:14:40;99154.98;;;6.18;81.75
58662;BME280;44432;49.786;22.760;2023-04-19T03:17:10;99151.33;;;6.16;82.02
58662;BME280;44432;49.786;22.760;2023-04-19T03:19:41;99150.06;;;6.15;81.85
58662;BME280;44432;49.786;22.760;2023-04-19T03:22:11;99150.91;;;6.15;81.89
58662;BME280;44432;49.786;22.760;2023-04-19T03:24:42;99145.96;;;6.16;82.11
58662;BME280;44432;49.786;22.760;2023-04-19T03:27:12;99143.19;;;6.17;82.21
58662;BME280;44432;49.786;22.760;2023-04-19T03:29:43;99140.27;;;6.18;82.39
58662;BME280;44432;49.786;22.760;2023-04-19T03:32:13;99141.80;;;6.20;82.18
58662;BME280;44432;49.786;22.760;2023-04-19T03:34:44;99138.88;;;6.21;82.61
58662;BME280;44432;49.786;22.760;2023-04-19T03:37:15;99137.00;;;6.23;82.39
58662;BME280;44432;49.786;22.760;2023-04-19T03:39:45;99136.04;;;6.27;82.75
58662;BME280;44432;49.786;22.760;2023-04-19T03:42:16;99130.54;;;6.30;82.94
58662;BME280;44432;49.786;22.760;2023-04-19T03:44:46;99135.98;;;6.35;82.88
58662;BME280;44432;49.786;22.760;2023-04-19T03:47:17;99135.23;;;6.41;83.38
58662;BME280;44432;49.786;22.760;2023-04-19T03:49:47;99134.60;;;6.48;83.32
58662;BME280;44432;49.786;22.760;2023-04-19T03:52:18;99135.34;;;6.55;83.27
58662;BME280;44432;49.786;22.760;2023-04-19T03:54:49;99134.83;;;6.62;83.32
58662;BME280;44432;49.786;22.760;2023-04-19T03:57:19;99133.63;;;6.68;83.34
58662;BME280;44432;49.786;22.760;2023-04-19T03:59:50;99128.85;;;6.76;83.27
58662;BME280;44432;49.786;22.760;2023-04-19T04:02:21;99127.77;;;6.83;83.47
58662;BME280;44432;49.786;22.760;2023-04-19T04:04:54;99122.52;;;6.90;83.19
58662;BME280;44432;49.786;22.760;2023-04-19T04:07:25;99123.39;;;6.99;83.04
58662;BME280;44432;49.786;22.760;2023-04-19T04:09:56;99124.11;;;7.06;83.13
58662;BME280;44432;49.786;22.760;2023-04-19T04:12:26;99125.25;;;7.14;82.82
58662;BME280;44432;49.786;22.760;2023-04-19T04:14:57;99124.96;;;7.20;83.12
58662;BME280;44432;49.786;22.760;2023-04-19T04:17:27;99124.66;;;7.27;82.58
58662;BME280;44432;49.786;22.760;2023-04-19T04:19:58;99127.42;;;7.34;82.91
58662;BME280;44432;49.786;22.760;2023-04-19T04:22:29;99120.79;;;7.41;82.84
58662;BME280;44432;49.786;22.760;2023-04-19T04:25:01;99124.70;;;7.48;83.01
58662;BME280;44432;49.786;22.760;2023-04-19T04:27:31;99127.42;;;7.54;82.71
58662;BME280;44432;49.786;22.760;2023-04-19T04:30:02;99126.03;;;7.61;82.54
58662;BME280;44432;49.786;22.760;2023-04-19T04:32:33;99123.83;;;7.67;82.72
58662;BME280;44432;49.786;22.760;2023-04-19T04:35:05;99121.19;;;7.74;82.62
58662;BME280;44432;49.786;22.760;2023-04-19T04:37:36;99122.86;;;7.81;82.32
58662;BME280;44432;49.786;22.760;2023-04-19T04:40:10;99122.48;;;7.88;82.21
58662;BME280;44432;49.786;22.760;2023-04-19T04:42:41;99123.14;;;7.97;82.20
58662;BME280;44432;49.786;22.760;2023-04-19T04:45:13;99124.20;;;8.05;82.41
58662;BME280;44432;49.786;22.760;2023-04-19T04:47:46;99126.54;;;8.12;82.24
58662;BME280;44432;49.786;22.760;2023-04-19T04:50:17;99125.73;;;8.20;81.97
58662;BME280;44432;49.786;22.760;2023-04-19T04:52:47;99125.58;;;8.28;82.34
58662;BME280;44432;49.786;22.760;2023-04-19T04:55:18;99124.30;;;8.36;81.90
58662;BME280;44432;49.786;22.760;2023-04-19T04:57:49;99123.93;;;8.44;82.19
58662;BME280;44432;49.786;22.760;2023-04-19T05:00:20;99120.77;;;8.53;82.30
58662;BME280;44432;49.786;22.760;2023-04-19T05:02:51;99121.90;;;8.62;82.01
58662;BME280;44432;49.786;22.760;2023-04-19T05:05:22;99121.45;;;8.71;82.03
58662;BME280;44432;49.786;22.760;2023-04-19T05:07:53;99120.39;;;8.78;81.86
58662;BME280;44432;49.786;22.760;2023-04-19T05:10:23;99120.21;;;8.88;81.98
58662;BME280;44432;49.786;22.760;2023-04-19T05:12:54;99118.70;;;8.96;81.80
58662;BME280;44432;49.786;22.760;2023-04-19T05:15:25;99117.08;;;9.04;81.85
58662;BME280;44432;49.786;22.760;2023-04-19T05:17:55;99118.67;;;9.12;81.64
58662;BME280;44432;49.786;22.760;2023-04-19T05:20:27;99116.14;;;9.19;81.44
58662;BME280;44432;49.786;22.760;2023-04-19T05:23:01;99112.64;;;9.24;81.26
58662;BME280;44432;49.786;22.760;2023-04-19T05:25:32;99115.34;;;9.29;81.15
58662;BME280;44432;49.786;22.760;2023-04-19T05:28:03;99116.77;;;9.34;81.10
58662;BME280;44432;49.786;22.760;2023-04-19T05:30:33;99118.84;;;9.38;80.82
58662;BME280;44432;49.786;22.760;2023-04-19T05:33:04;99118.71;;;9.40;80.62
58662;BME280;44432;49.786;22.760;2023-04-19T05:35:35;99119.98;;;9.38;80.50
58662;BME280;44432;49.786;22.760;2023-04-19T05:38:06;99123.26;;;9.39;80.31
58662;BME280;44432;49.786;22.760;2023-04-19T05:40:36;99123.43;;;9.36;80.30
58662;BME280;44432;49.786;22.760;2023-04-19T05:43:08;99120.30;;;9.35;80.35
58662;BME280;44432;49.786;22.760;2023-04-19T05:45:39;99116.52;;;9.36;80.47
58662;BME280;44432;49.786;22.760;2023-04-19T05:48:09;99114.79;;;9.38;80.53
58662;BME280;44432;49.786;22.760;2023-04-19T05:50:40;99114.02;;;9.40;80.55
58662;BME280;44432;49.786;22.760;2023-04-19T05:53:11;99116.88;;;9.42;80.52
58662;BME280;44432;49.786;22.760;2023-04-19T05:55:41;99122.67;;;9.40;80.54
58662;BME280;44432;49.786;22.760;2023-04-19T05:58:13;99126.49;;;9.38;80.34
58662;BME280;44432;49.786;22.760;2023-04-19T06:00:44;99126.70;;;9.38;80.47
58662;BME280;44432;49.786;22.760;2023-04-19T06:03:15;99130.54;;;9.40;80.54
58662;BME280;44432;49.786;22.760;2023-04-19T06:05:46;99132.08;;;9.44;80.49
58662;BME280;44432;49.786;22.760;2023-04-19T06:08:16;99126.71;;;9.47;80.49
58662;BME280;44432;49.786;22.760;2023-04-19T06:10:47;99127.06;;;9.51;80.42
58662;BME280;44432;49.786;22.760;2023-04-19T06:13:17;99129.08;;;9.54;80.30
58662;BME280;44432;49.786;22.760;2023-04-19T06:15:48;99128.89;;;9.58;80.31
58662;BME280;44432;49.786;22.760;2023-04-19T06:18:19;99131.64;;;9.64;80.11
58662;BME280;44432;49.786;22.760;2023-04-19T06:20:50;99133.59;;;9.68;80.15
58662;BME280;44432;49.786;22.760;2023-04-19T06:23:22;99132.80;;;9.75;80.21
58662;BME280;44432;49.786;22.760;2023-04-19T06:25:53;99133.20;;;9.81;79.97
58662;BME280;44432;49.786;22.760;2023-04-19T06:28:24;99130.06;;;9.85;79.74
58662;BME280;44432;49.786;22.760;2023-04-19T06:30:55;99132.35;;;9.90;79.51
58662;BME280;44432;49.786;22.760;2023-04-19T06:33:25;99128.19;;;9.95;79.48
58662;BME280;44432;49.786;22.760;2023-04-19T06:35:56;99131.06;;;10.02;79.41
58662;BME280;44432;49.786;22.760;2023-04-19T06:38:26;99136.48;;;10.11;79.29
58662;BME280;44432;49.786;22.760;2023-04-19T06:40:57;99131.91;;;10.17;79.12
58662;BME280;44432;49.786;22.760;2023-04-19T06:43:28;99127.40;;;10.21;79.08
58662;BME280;44432;49.786;22.760;2023-04-19T06:46:00;99134.87;;;10.28;78.80
58662;BME280;44432;49.786;22.760;2023-04-19T06:48:33;99135.58;;;10.25;78.22
58662;BME280;44432;49.786;22.760;2023-04-19T06:51:05;99129.84;;;10.21;78.36
58662;BME280;44432;49.786;22.760;2023-04-19T06:53:35;99135.44;;;10.21;78.47
58662;BME280;44432;49.786;22.760;2023-04-19T06:56:07;99135.83;;;10.24;78.49
58662;BME280;44432;49.786;22.760;2023-04-19T06:58:38;99134.10;;;10.27;78.41
58662;BME280;44432;49.786;22.760;2023-04-19T07:01:09;99138.73;;;10.32;78.37
58662;BME280;44432;49.786;22.760;2023-04-19T07:03:40;99133.83;;;10.31;77.94
58662;BME280;44432;49.786;22.760;2023-04-19T07:06:10;99136.38;;;10.26;77.79
58662;BME280;44432;49.786;22.760;2023-04-19T07:08:41;99136.15;;;10.24;77.95
58662;BME280;44432;49.786;22.760;2023-04-19T07:11:11;99136.40;;;10.23;77.99
58662;BME280;44432;49.786;22.760;2023-04-19T07:13:42;99139.93;;;10.29;78.22
58662;BME280;44432;49.786;22.760;2023-04-19T07:16:13;99138.48;;;10.34;78.11
58662;BME280;44432;49.786;22.760;2023-04-19T07:18:43;99140.70;;;10.39;78.00
58662;BME280;44432;49.786;22.760;2023-04-19T07:21:14;99141.38;;;10.44;77.85
58662;BME280;44432;49.786;22.760;2023-04-19T07:23:45;99139.94;;;10.52;77.80
58662;BME280;44432;49.786;22.760;2023-04-19T07:26:15;99142.43;;;10.65;77.94
58662;BME280;44432;49.786;22.760;2023-04-19T07:28:46;99145.94;;;10.78;77.46
58662;BME280;44432;49.786;22.760;2023-04-19T07:31:18;99142.39;;;10.93;77.36
58662;BME280;44432;49.786;22.760;2023-04-19T07:33:49;99136.67;;;11.12;77.26
58662;BME280;44432;49.786;22.760;2023-04-19T07:36:20;99138.02;;;11.34;76.74
58662;BME280;44432;49.786;22.760;2023-04-19T07:38:51;99134.52;;;11.59;76.73
58662;BME280;44432;49.786;22.760;2023-04-19T07:41:21;99128.24;;;11.84;75.84
58662;BME280;44432;49.786;22.760;2023-04-19T07:43:52;99127.26;;;12.00;75.23
58662;BME280;44432;49.786;22.760;2023-04-19T07:46:23;99129.05;;;12.23;75.11
58662;BME280;44432;49.786;22.760;2023-04-19T07:48:53;99127.52;;;12.47;74.52
58662;BME280;44432;49.786;22.760;2023-04-19T07:51:24;99130.38;;;12.70;73.97
58662;BME280;44432;49.786;22.760;2023-04-19T07:53:55;99131.98;;;12.87;73.19
58662;BME280;44432;49.786;22.760;2023-04-19T07:56:26;99132.21;;;12.90;71.95
58662;BME280;44432;49.786;22.760;2023-04-19T07:58:57;99131.56;;;12.78;71.59
58662;BME280;44432;49.786;22.760;2023-04-19T08:01:27;99129.52;;;12.73;71.56
58662;BME280;44432;49.786;22.760;2023-04-19T08:03:58;99128.54;;;12.69;71.29
58662;BME280;44432;49.786;22.760;2023-04-19T08:06:29;99128.88;;;12.63;71.29
58662;BME280;44432;49.786;22.760;2023-04-19T08:09:00;99127.94;;;12.52;70.77
58662;BME280;44432;49.786;22.760;2023-04-19T08:11:31;99128.42;;;12.42;71.09
58662;BME280;44432;49.786;22.760;2023-04-19T08:14:02;99123.19;;;12.38;70.99
58662;BME280;44432;49.786;22.760;2023-04-19T08:16:32;99125.14;;;12.36;71.06
58662;BME280;44432;49.786;22.760;2023-04-19T08:19:03;99122.23;;;12.34;71.00
58662;BME280;44432;49.786;22.760;2023-04-19T08:21:34;99123.90;;;12.29;70.80
58662;BME280;44432;49.786;22.760;2023-04-19T08:24:06;99120.42;;;12.23;70.66
58662;BME280;44432;49.786;22.760;2023-04-19T08:26:36;99127.61;;;12.19;70.60
58662;BME280;44432;49.786;22.760;2023-04-19T08:29:08;99122.83;;;12.18;70.71
58662;BME280;44432;49.786;22.760;2023-04-19T08:31:38;99125.39;;;12.15;70.39
58662;BME280;44432;49.786;22.760;2023-04-19T08:34:12;99123.72;;;12.17;70.72
58662;BME280;44432;49.786;22.760;2023-04-19T08:36:43;99121.27;;;12.31;70.83
58662;BME280;44432;49.786;22.760;2023-04-19T08:39:14;99125.20;;;12.40;70.05
58662;BME280;44432;49.786;22.760;2023-04-19T08:41:45;99121.77;;;12.41;69.85
58662;BME280;44432;49.786;22.760;2023-04-19T08:44:16;99122.53;;;12.42;69.18
58662;BME280;44432;49.786;22.760;2023-04-19T08:46:48;99121.15;;;12.41;69.12
58662;BME280;44432;49.786;22.760;2023-04-19T08:49:19;99119.80;;;12.41;68.58
58662;BME280;44432;49.786;22.760;2023-04-19T08:51:50;99120.30;;;12.46;68.80
58662;BME280;44432;49.786;22.760;2023-04-19T08:54:21;99125.23;;;12.63;68.65
58662;BME280;44432;49.786;22.760;2023-04-19T08:56:54;99124.43;;;12.78;67.81
58662;BME280;44432;49.786;22.760;2023-04-19T08:59:25;99124.89;;;12.94;67.66
58662;BME280;44432;49.786;22.760;2023-04-19T09:02:20;99121.71;;;13.12;66.89
58662;BME280;44432;49.786;22.760;2023-04-19T09:04:51;99120.61;;;13.23;66.00
58662;BME280;44432;49.786;22.760;2023-04-19T09:07:26;99122.23;;;13.32;66.08
58662;BME280;44432;49.786;22.760;2023-04-19T09:10:09;99121.82;;;13.49;66.01
58662;BME280;44432;49.786;22.760;2023-04-19T09:12:41;99122.70;;;13.63;65.39
58662;BME280;44432;49.786;22.760;2023-04-19T09:15:12;99116.51;;;13.68;64.93
58662;BME280;44432;49.786;22.760;2023-04-19T09:17:42;99120.89;;;13.75;64.55
58662;BME280;44432;49.786;22.760;2023-04-19T09:20:14;99120.00;;;13.85;64.50
58662;BME280;44432;49.786;22.760;2023-04-19T09:23:03;99122.65;;;13.96;63.57
58662;BME280;44432;49.786;22.760;2023-04-19T09:25:34;99115.96;;;13.96;63.23
58662;BME280;44432;49.786;22.760;2023-04-19T09:28:13;99116.91;;;14.02;63.14
58662;BME280;44432;49.786;22.760;2023-04-19T09:30:44;99114.53;;;13.99;62.33
58662;BME280;44432;49.786;22.760;2023-04-19T09:33:31;99111.66;;;13.96;62.76
58662;BME280;44432;49.786;22.760;2023-04-19T09:36:03;99117.71;;;14.01;62.13
58662;BME280;44432;49.786;22.760;2023-04-19T09:38:46;99112.77;;;13.98;62.03
58662;BME280;44432;49.786;22.760;2023-04-19T09:41:17;99115.64;;;14.08;62.41
58662;BME280;44432;49.786;22.760;2023-04-19T09:43:49;99117.99;;;14.18;61.96
58662;BME280;44432;49.786;22.760;2023-04-19T09:46:32;99114.83;;;14.13;61.53
58662;BME280;44432;49.786;22.760;2023-04-19T09:49:20;99109.48;;;14.20;61.79
58662;BME280;44432;49.786;22.760;2023-04-19T09:51:53;99108.52;;;14.41;61.54
58662;BME280;44432;49.786;22.760;2023-04-19T09:54:24;99109.86;;;14.55;60.75
58662;BME280;44432;49.786;22.760;2023-04-19T09:56:58;99109.59;;;14.60;60.30
58662;BME280;44432;49.786;22.760;2023-04-19T09:59:31;99108.61;;;14.68;60.21
58662;BME280;44432;49.786;22.760;2023-04-19T10:02:02;99107.00;;;14.85;59.60
58662;BME280;44432;49.786;22.760;2023-04-19T10:04:35;99108.01;;;15.08;59.41
58662;BME280;44432;49.786;22.760;2023-04-19T10:07:07;99105.49;;;15.27;58.62
58662;BME280;44432;49.786;22.760;2023-04-19T10:09:38;99106.88;;;15.20;56.33
58662;BME280;44432;49.786;22.760;2023-04-19T10:12:09;99105.80;;;14.98;56.06
58662;BME280;44432;49.786;22.760;2023-04-19T10:14:40;99109.02;;;14.92;56.57
58662;BME280;44432;49.786;22.760;2023-04-19T10:17:12;99103.92;;;14.93;55.72
58662;BME280;44432;49.786;22.760;2023-04-19T10:19:43;99099.09;;;15.02;56.18
58662;BME280;44432;49.786;22.760;2023-04-19T10:22:14;99102.69;;;15.20;55.97
58662;BME280;44432;49.786;22.760;2023-04-19T10:25:08;99102.86;;;15.29;55.35
58662;BME280;44432;49.786;22.760;2023-04-19T10:27:40;99104.30;;;15.29;54.40
58662;BME280;44432;49.786;22.760;2023-04-19T10:30:21;99099.30;;;15.21;53.74
58662;BME280;44432;49.786;22.760;2023-04-19T10:32:55;99098.84;;;15.19;54.45
58662;BME280;44432;49.786;22.760;2023-04-19T10:35:25;99097.67;;;15.27;54.89
58662;BME280;44432;49.786;22.760;2023-04-19T10:38:10;99099.74;;;15.35;55.21
58662;BME280;44432;49.786;22.760;2023-04-19T10:40:58;99099.88;;;15.42;54.86
58662;BME280;44432;49.786;22.760;2023-04-19T10:43:30;99101.21;;;15.51;54.70
58662;BME280;44432;49.786;22.760;2023-04-19T10:46:05;99095.38;;;15.67;54.62
58662;BME280;44432;49.786;22.760;2023-04-19T10:48:38;99090.85;;;15.77;53.06
58662;BME280;44432;49.786;22.760;2023-04-19T10:51:16;99089.41;;;15.82;53.96
58662;BME280;44432;49.786;22.760;2023-04-19T10:53:52;99094.45;;;15.91;53.69
58662;BME280;44432;49.786;22.760;2023-04-19T10:56:56;99093.63;;;15.93;53.52
58662;BME280;44432;49.786;22.760;2023-04-19T10:59:30;99094.05;;;16.04;54.13
58662;BME280;44432;49.786;22.760;2023-04-19T11:02:02;99095.42;;;16.15;54.32
58662;BME280;44432;49.786;22.760;2023-04-19T11:07:44;99096.77;;;15.98;53.70
58662;BME280;44432;49.786;22.760;2023-04-19T11:10:28;99099.52;;;15.87;53.24
58662;BME280;44432;49.786;22.760;2023-04-19T11:12:59;99101.55;;;15.67;52.67
58662;BME280;44432;49.786;22.760;2023-04-19T11:15:30;99092.05;;;15.46;52.80
58662;BME280;44432;49.786;22.760;2023-04-19T11:18:01;99093.45;;;15.39;53.61
58662;BME280;44432;49.786;22.760;2023-04-19T11:20:33;99088.45;;;15.47;54.02
58662;BME280;44432;49.786;22.760;2023-04-19T11:23:03;99088.28;;;15.64;54.18
58662;BME280;44432;49.786;22.760;2023-04-19T11:25:45;99081.41;;;15.87;54.28
58662;BME280;44432;49.786;22.760;2023-04-19T11:28:17;99082.23;;;16.00;53.19
58662;BME280;44432;49.786;22.760;2023-04-19T11:30:50;99086.23;;;16.00;52.29
58662;BME280;44432;49.786;22.760;2023-04-19T11:33:22;99082.64;;;15.97;52.22
58662;BME280;44432;49.786;22.760;2023-04-19T11:35:54;99075.61;;;16.02;52.18
58662;BME280;44432;49.786;22.760;2023-04-19T11:38:27;99078.56;;;16.12;51.85
58662;BME280;44432;49.786;22.760;2023-04-19T11:41:02;99076.79;;;16.15;50.90
58662;BME280;44432;49.786;22.760;2023-04-19T11:43:36;99075.70;;;16.19;50.51
58662;BME280;44432;49.786;22.760;2023-04-19T11:46:08;99069.39;;;16.23;50.37
58662;BME280;44432;49.786;22.760;2023-04-19T11:48:48;99073.11;;;16.17;48.95
58662;BME280;44432;49.786;22.760;2023-04-19T11:51:20;99071.40;;;16.02;49.12
58662;BME280;44432;49.786;22.760;2023-04-19T11:53:51;99071.36;;;16.05;48.78
58662;BME280;44432;49.786;22.760;2023-04-19T11:56:22;99070.70;;;16.03;48.19
58662;BME280;44432;49.786;22.760;2023-04-19T11:58:57;99069.38;;;16.09;48.25
58662;BME280;44432;49.786;22.760;2023-04-19T12:01:29;99063.95;;;16.17;48.71
58662;BME280;44432;49.786;22.760;2023-04-19T12:04:02;99061.30;;;16.30;48.86
58662;BME280;44432;49.786;22.760;2023-04-19T12:06:34;99062.11;;;16.40;48.22
58662;BME280;44432;49.786;22.760;2023-04-19T12:09:07;99062.61;;;16.50;47.75
58662;BME280;44432;49.786;22.760;2023-04-19T12:11:45;99064.66;;;16.61;47.35
58662;BME280;44432;49.786;22.760;2023-04-19T12:14:19;99063.88;;;16.70;47.44
58662;BME280;44432;49.786;22.760;2023-04-19T12:17:09;99064.20;;;16.81;47.68
58662;BME280;44432;49.786;22.760;2023-04-19T12:19:45;99066.74;;;16.87;47.65
58662;BME280;44432;49.786;22.760;2023-04-19T12:22:17;99066.09;;;16.86;47.46
58662;BME280;44432;49.786;22.760;2023-04-19T12:24:51;99068.34;;;16.86;47.06
58662;BME280;44432;49.786;22.760;2023-04-19T12:27:22;99065.85;;;16.81;46.86
58662;BME280;44432;49.786;22.760;2023-04-19T12:29:54;99066.41;;;16.76;47.08
58662;BME280;44432;49.786;22.760;2023-04-19T12:32:25;99067.78;;;16.66;47.01
58662;BME280;44432;49.786;22.760;2023-04-19T12:34:55;99062.16;;;16.52;47.29
58662;BME280;44432;49.786;22.760;2023-04-19T12:37:26;99060.35;;;16.39;47.35
58662;BME280;44432;49.786;22.760;2023-04-19T12:39:56;99060.14;;;16.24;47.39
58662;BME280;44432;49.786;22.760;2023-04-19T12:42:27;99060.48;;;15.97;47.38
58662;BME280;44432;49.786;22.760;2023-04-19T12:44:58;99058.68;;;15.81;48.01
58662;BME280;44432;49.786;22.760;2023-04-19T12:47:29;99062.17;;;15.69;47.96
58662;BME280;44432;49.786;22.760;2023-04-19T12:50:00;99065.40;;;15.59;48.21
58662;BME280;44432;49.786;22.760;2023-04-19T12:52:31;99069.89;;;15.54;48.50
58662;BME280;44432;49.786;22.760;2023-04-19T12:55:01;99066.02;;;15.55;48.83
58662;BME280;44432;49.786;22.760;2023-04-19T12:57:32;99064.31;;;15.63;49.07
58662;BME280;44432;49.786;22.760;2023-04-19T13:00:03;99061.83;;;15.71;49.00
58662;BME280;44432;49.786;22.760;2023-04-19T13:02:35;99063.95;;;15.81;49.04
58662;BME280;44432;49.786;22.760;2023-04-19T13:05:07;99067.02;;;15.90;48.80
58662;BME280;44432;49.786;22.760;2023-04-19T13:07:37;99067.05;;;15.93;48.42
58662;BME280;44432;49.786;22.760;2023-04-19T13:10:09;99067.71;;;15.95;48.24
58662;BME280;44432;49.786;22.760;2023-04-19T13:12:41;99065.12;;;15.97;48.17
58662;BME280;44432;49.786;22.760;2023-04-19T13:15:12;99066.60;;;15.96;48.24
58662;BME280;44432;49.786;22.760;2023-04-19T13:17:43;99070.85;;;15.89;48.12
58662;BME280;44432;49.786;22.760;2023-04-19T13:20:14;99069.98;;;15.82;48.23
58662;BME280;44432;49.786;22.760;2023-04-19T13:22:45;99066.52;;;15.72;48.29